sensor_id;sensor_type;location;lat;lon;timestamp;temperature;humidity
14140;DHT22;7150;53.514;9.988;2023-12-14T00:01:53;8.00;99.90
14140;DHT22;7150;53.514;9.988;2023-12-14T00:04:18;8.00;99.90
14140;DHT22;7150;53.514;9.988;2023-12-14T00:06:44;8.10;99.90
14140;DHT22;7150;53.514;9.988;2023-12-14T00:09:09;8.10;99.90
14140;DHT22;7150;53.514;9.988;2023-12-14T00:11:38;8.00;99.90
14140;DHT22;7150;53.514;9.988;2023-12-14T00:14:04;8.10;99.90
14140;DHT22;7150;53.514;9.988;2023-12-14T00:16:30;8.10;99.90
14140;DHT22;7150;53.514;9.988;2023-12-14T00:18:56;8.10;99.90
14140;DHT22;7150;53.514;9.988;2023-12-14T00:21:21;8.20;99.90
14140;DHT22;7150;53.514;9.988;2023-12-14T00:23:47;8.10;99.90
14140;DHT22;7150;53.514;9.988;2023-12-14T00:26:12;8.20;99.90
14140;DHT22;7150;53.514;9.988;2023-12-14T00:28:38;8.10;99.90
14140;DHT22;7150;53.514;9.988;2023-12-14T00:31:03;8.10;99.90
14140;DHT22;7150;53.514;9.988;2023-12-14T00:33:29;8.10;99.90
14140;DHT22;7150;53.514;9.988;2023-12-14T00:35:54;8.10;99.90
14140;DHT22;7150;53.514;9.988;2023-12-14T00:38:20;8.20;99.90
14140;DHT22;7150;53.514;9.988;2023-12-14T00:40:45;8.40;99.90
14140;DHT22;7150;53.514;9.988;2023-12-14T00:43:11;8.20;99.90
14140;DHT22;7150;53.514;9.988;2023-12-14T00:45:36;8.40;99.90
14140;DHT22;7150;53.514;9.988;2023-12-14T00:48:02;8.30;99.90
14140;DHT22;7150;53.514;9.988;2023-12-14T00:50:27;8.30;99.90
14140;DHT22;7150;53.514;9.988;2023-12-14T00:52:53;8.30;99.90
14140;DHT22;7150;53.514;9.988;2023-12-14T00:55:18;8.30;99.90
14140;DHT22;7150;53.514;9.988;2023-12-14T00:57:44;8.40;99.90
14140;DHT22;7150;53.514;9.988;2023-12-14T01:00:10;8.30;99.90
14140;DHT22;7150;53.514;9.988;2023-12-14T01:02:36;8.30;99.90
14140;DHT22;7150;53.514;9.988;2023-12-14T01:05:02;8.30;99.90
14140;DHT22;7150;53.514;9.988;2023-12-14T01:07:27;8.30;99.90
14140;DHT22;7150;53.514;9.988;2023-12-14T01:09:53;8.30;99.90
14140;DHT22;7150;53.514;9.988;2023-12-14T01:12:18;8.30;99.90
14140;DHT22;7150;53.514;9.988;2023-12-14T01:14:44;8.30;99.90
14140;DHT22;7150;53.514;9.988;2023-12-14T01:17:09;8.30;99.90
14140;DHT22;7150;53.514;9.988;2023-12-14T01:19:35;8.30;99.90
14140;DHT22;7150;53.514;9.988;2023-12-14T01:22:00;8.30;99.90
14140;DHT22;7150;53.514;9.988;2023-12-14T01:24:26;8.30;99.90
14140;DHT22;7150;53.514;9.988;2023-12-14T01:26:51;8.30;99.90
14140;DHT22;7150;53.514;9.988;2023-12-14T01:29:17;8.30;99.90
14140;DHT22;7150;53.514;9.988;2023-12-14T01:31:42;8.30;99.90
14140;DHT22;7150;53.514;9.988;2023-12-14T01:34:08;8.30;99.90
14140;DHT22;7150;53.514;9.988;2023-12-14T01:36:35;8.30;99.90
14140;DHT22;7150;53.514;9.988;2023-12-14T01:39:01;8.30;99.90
14140;DHT22;7150;53.514;9.988;2023-12-14T01:41:26;8.50;99.90
14140;DHT22;7150;53.514;9.988;2023-12-14T01:43:52;8.40;99.90
14140;DHT22;7150;53.514;9.988;2023-12-14T01:46:17;8.30;99.90
14140;DHT22;7150;53.514;9.988;2023-12-14T01:48:43;8.30;99.90
14140;DHT22;7150;53.514;9.988;2023-12-14T01:51:09;8.30;99.90
14140;DHT22;7150;53.514;9.988;2023-12-14T01:53:34;8.50;99.90
14140;DHT22;7150;53.514;9.988;2023-12-14T01:56:00;8.40;99.90
14140;DHT22;7150;53.514;9.988;2023-12-14T01:58:25;8.40;99.90
14140;DHT22;7150;53.514;9.988;2023-12-14T02:03:36;8.40;99.90
14140;DHT22;7150;53.514;9.988;2023-12-14T02:06:08;8.40;99.90
14140;DHT22;7150;53.514;9.988;2023-12-14T02:08:34;8.40;99.90
14140;DHT22;7150;53.514;9.988;2023-12-14T02:11:00;8.40;99.90
14140;DHT22;7150;53.514;9.988;2023-12-14T02:13:25;8.40;99.90
14140;DHT22;7150;53.514;9.988;2023-12-14T02:15:51;8.40;99.90
14140;DHT22;7150;53.514;9.988;2023-12-14T02:18:18;8.40;99.90
14140;DHT22;7150;53.514;9.988;2023-12-14T02:20:44;8.40;99.90
14140;DHT22;7150;53.514;9.988;2023-12-14T02:23:09;8.30;99.90
14140;DHT22;7150;53.514;9.988;2023-12-14T02:25:35;8.30;99.90
14140;DHT22;7150;53.514;9.988;2023-12-14T02:28:00;8.40;99.90
14140;DHT22;7150;53.514;9.988;2023-12-14T02:30:26;8.30;99.90
14140;DHT22;7150;53.514;9.988;2023-12-14T02:32:51;8.30;99.90
14140;DHT22;7150;53.514;9.988;2023-12-14T02:35:17;8.30;99.90
14140;DHT22;7150;53.514;9.988;2023-12-14T02:37:43;8.40;99.90
14140;DHT22;7150;53.514;9.988;2023-12-14T02:40:10;8.40;99.90
14140;DHT22;7150;53.514;9.988;2023-12-14T02:42:35;8.40;99.90
14140;DHT22;7150;53.514;9.988;2023-12-14T02:45:02;8.40;99.90
14140;DHT22;7150;53.514;9.988;2023-12-14T02:47:28;8.40;99.90
14140;DHT22;7150;53.514;9.988;2023-12-14T02:49:54;8.30;99.90
14140;DHT22;7150;53.514;9.988;2023-12-14T02:52:20;8.40;99.90
14140;DHT22;7150;53.514;9.988;2023-12-14T02:54:46;8.40;99.90
14140;DHT22;7150;53.514;9.988;2023-12-14T02:57:11;8.30;99.90
14140;DHT22;7150;53.514;9.988;2023-12-14T02:59:37;8.40;99.90
14140;DHT22;7150;53.514;9.988;2023-12-14T03:02:03;8.30;99.90
14140;DHT22;7150;53.514;9.988;2023-12-14T03:04:28;8.40;99.90
14140;DHT22;7150;53.514;9.988;2023-12-14T03:06:54;8.50;99.90
14140;DHT22;7150;53.514;9.988;2023-12-14T03:09:19;8.40;99.90
14140;DHT22;7150;53.514;9.988;2023-12-14T03:11:45;8.40;99.90
14140;DHT22;7150;53.514;9.988;2023-12-14T03:14:11;8.40;99.90
14140;DHT22;7150;53.514;9.988;2023-12-14T03:16:36;8.30;99.90
14140;DHT22;7150;53.514;9.988;2023-12-14T03:19:02;8.40;99.90
14140;DHT22;7150;53.514;9.988;2023-12-14T03:21:28;8.30;99.90
14140;DHT22;7150;53.514;9.988;2023-12-14T03:23:54;8.30;99.90
14140;DHT22;7150;53.514;9.988;2023-12-14T03:26:19;8.30;99.90
14140;DHT22;7150;53.514;9.988;2023-12-14T03:28:45;8.30;99.90
14140;DHT22;7150;53.514;9.988;2023-12-14T03:31:11;8.30;99.90
14140;DHT22;7150;53.514;9.988;2023-12-14T03:33:37;8.40;99.90
14140;DHT22;7150;53.514;9.988;2023-12-14T03:36:03;8.40;99.90
14140;DHT22;7150;53.514;9.988;2023-12-14T03:38:28;8.40;99.90
14140;DHT22;7150;53.514;9.988;2023-12-14T03:40:54;8.40;99.90
14140;DHT22;7150;53.514;9.988;2023-12-14T03:43:19;8.50;99.90
14140;DHT22;7150;53.514;9.988;2023-12-14T03:45:45;8.40;99.90
14140;DHT22;7150;53.514;9.988;2023-12-14T03:48:11;8.40;99.90
14140;DHT22;7150;53.514;9.988;2023-12-14T03:50:36;8.40;99.90
14140;DHT22;7150;53.514;9.988;2023-12-14T03:53:02;8.30;99.90
14140;DHT22;7150;53.514;9.988;2023-12-14T03:55:27;8.30;99.90
14140;DHT22;7150;53.514;9.988;2023-12-14T03:57:53;8.40;99.90
14140;DHT22;7150;53.514;9.988;2023-12-14T04:00:18;8.40;99.90
14140;DHT22;7150;53.514;9.988;2023-12-14T04:02:44;8.40;99.90
14140;DHT22;7150;53.514;9.988;2023-12-14T04:05:10;8.40;99.90
14140;DHT22;7150;53.514;9.988;2023-12-14T04:07:36;8.40;99.90
14140;DHT22;7150;53.514;9.988;2023-12-14T04:10:05;8.40;99.90
14140;DHT22;7150;53.514;9.988;2023-12-14T04:12:30;8.40;99.90
14140;DHT22;7150;53.514;9.988;2023-12-14T04:14:56;8.40;99.90
14140;DHT22;7150;53.514;9.988;2023-12-14T04:17:21;8.40;99.90
14140;DHT22;7150;53.514;9.988;2023-12-14T04:19:47;8.40;99.90
14140;DHT22;7150;53.514;9.988;2023-12-14T04:22:12;8.40;99.90
14140;DHT22;7150;53.514;9.988;2023-12-14T04:24:38;8.40;99.90
14140;DHT22;7150;53.514;9.988;2023-12-14T04:27:04;8.30;99.90
14140;DHT22;7150;53.514;9.988;2023-12-14T04:29:29;8.30;99.90
14140;DHT22;7150;53.514;9.988;2023-12-14T04:31:55;8.40;99.90
14140;DHT22;7150;53.514;9.988;2023-12-14T04:34:20;8.40;99.90
14140;DHT22;7150;53.514;9.988;2023-12-14T04:36:46;8.40;99.90
14140;DHT22;7150;53.514;9.988;2023-12-14T04:39:11;8.40;99.90
14140;DHT22;7150;53.514;9.988;2023-12-14T04:41:37;8.40;99.90
14140;DHT22;7150;53.514;9.988;2023-12-14T04:44:03;8.50;99.90
14140;DHT22;7150;53.514;9.988;2023-12-14T04:46:29;8.50;99.90
14140;DHT22;7150;53.514;9.988;2023-12-14T04:48:55;8.50;99.90
14140;DHT22;7150;53.514;9.988;2023-12-14T04:51:20;8.60;99.90
14140;DHT22;7150;53.514;9.988;2023-12-14T04:53:46;8.50;99.90
14140;DHT22;7150;53.514;9.988;2023-12-14T04:56:11;8.50;99.90
14140;DHT22;7150;53.514;9.988;2023-12-14T04:58:39;8.50;99.90
14140;DHT22;7150;53.514;9.988;2023-12-14T05:01:05;8.50;99.90
14140;DHT22;7150;53.514;9.988;2023-12-14T05:03:30;8.50;99.90
14140;DHT22;7150;53.514;9.988;2023-12-14T05:05:56;8.60;99.90
14140;DHT22;7150;53.514;9.988;2023-12-14T05:08:22;8.70;99.90
14140;DHT22;7150;53.514;9.988;2023-12-14T05:10:47;8.60;99.90
14140;DHT22;7150;53.514;9.988;2023-12-14T05:13:13;8.60;99.90
14140;DHT22;7150;53.514;9.988;2023-12-14T05:15:38;8.60;99.90
14140;DHT22;7150;53.514;9.988;2023-12-14T05:18:04;8.60;99.90
14140;DHT22;7150;53.514;9.988;2023-12-14T05:20:29;8.60;99.90
14140;DHT22;7150;53.514;9.988;2023-12-14T05:22:55;8.60;99.90
14140;DHT22;7150;53.514;9.988;2023-12-14T05:25:21;8.50;99.90
14140;DHT22;7150;53.514;9.988;2023-12-14T05:27:46;8.50;99.90
14140;DHT22;7150;53.514;9.988;2023-12-14T05:30:12;8.60;99.90
14140;DHT22;7150;53.514;9.988;2023-12-14T05:32:37;8.50;99.90
14140;DHT22;7150;53.514;9.988;2023-12-14T05:35:03;8.50;99.90
14140;DHT22;7150;53.514;9.988;2023-12-14T05:37:28;8.50;99.90
14140;DHT22;7150;53.514;9.988;2023-12-14T05:39:54;8.50;99.90
14140;DHT22;7150;53.514;9.988;2023-12-14T05:42:19;8.50;99.90
14140;DHT22;7150;53.514;9.988;2023-12-14T05:44:45;8.50;99.90
14140;DHT22;7150;53.514;9.988;2023-12-14T05:47:11;8.50;99.90
14140;DHT22;7150;53.514;9.988;2023-12-14T05:49:36;8.50;99.90
14140;DHT22;7150;53.514;9.988;2023-12-14T05:52:03;8.50;99.90
14140;DHT22;7150;53.514;9.988;2023-12-14T05:54:28;8.50;99.90
14140;DHT22;7150;53.514;9.988;2023-12-14T05:56:54;8.50;99.90
14140;DHT22;7150;53.514;9.988;2023-12-14T05:59:19;8.60;99.90
14140;DHT22;7150;53.514;9.988;2023-12-14T06:01:45;8.60;99.90
14140;DHT22;7150;53.514;9.988;2023-12-14T06:04:11;8.60;99.90
14140;DHT22;7150;53.514;9.988;2023-12-14T06:06:39;8.60;99.90
14140;DHT22;7150;53.514;9.988;2023-12-14T06:09:05;8.60;99.90
14140;DHT22;7150;53.514;9.988;2023-12-14T06:11:33;8.50;99.90
14140;DHT22;7150;53.514;9.988;2023-12-14T06:13:59;8.60;99.90
14140;DHT22;7150;53.514;9.988;2023-12-14T06:16:25;8.60;99.90
14140;DHT22;7150;53.514;9.988;2023-12-14T06:18:50;8.60;99.90
14140;DHT22;7150;53.514;9.988;2023-12-14T06:21:16;8.60;99.90
14140;DHT22;7150;53.514;9.988;2023-12-14T06:23:41;8.60;99.90
14140;DHT22;7150;53.514;9.988;2023-12-14T06:26:07;8.60;99.90
14140;DHT22;7150;53.514;9.988;2023-12-14T06:28:33;8.60;99.90
14140;DHT22;7150;53.514;9.988;2023-12-14T06:30:58;8.60;99.90
14140;DHT22;7150;53.514;9.988;2023-12-14T06:33:24;8.60;99.90
14140;DHT22;7150;53.514;9.988;2023-12-14T06:35:49;8.60;99.90
14140;DHT22;7150;53.514;9.988;2023-12-14T06:38:15;8.60;99.90
14140;DHT22;7150;53.514;9.988;2023-12-14T06:40:41;8.70;99.90
14140;DHT22;7150;53.514;9.988;2023-12-14T06:43:06;8.60;99.90
14140;DHT22;7150;53.514;9.988;2023-12-14T06:45:32;8.60;99.90
14140;DHT22;7150;53.514;9.988;2023-12-14T06:47:57;8.60;99.90
14140;DHT22;7150;53.514;9.988;2023-12-14T06:50:23;8.60;99.90
14140;DHT22;7150;53.514;9.988;2023-12-14T06:52:48;8.60;99.90
14140;DHT22;7150;53.514;9.988;2023-12-14T06:55:14;8.60;99.90
14140;DHT22;7150;53.514;9.988;2023-12-14T06:57:42;8.60;99.90
14140;DHT22;7150;53.514;9.988;2023-12-14T07:00:08;8.60;99.90
14140;DHT22;7150;53.514;9.988;2023-12-14T07:02:34;8.60;99.90
14140;DHT22;7150;53.514;9.988;2023-12-14T07:05:00;8.60;99.90
14140;DHT22;7150;53.514;9.988;2023-12-14T07:07:25;8.60;99.90
14140;DHT22;7150;53.514;9.988;2023-12-14T07:09:51;8.60;99.90
14140;DHT22;7150;53.514;9.988;2023-12-14T07:12:17;8.50;99.90
14140;DHT22;7150;53.514;9.988;2023-12-14T07:14:43;8.50;99.90
14140;DHT22;7150;53.514;9.988;2023-12-14T07:17:08;8.50;99.90
14140;DHT22;7150;53.514;9.988;2023-12-14T07:19:34;8.50;99.90
14140;DHT22;7150;53.514;9.988;2023-12-14T07:22:01;8.70;99.90
14140;DHT22;7150;53.514;9.988;2023-12-14T07:24:26;8.50;99.90
14140;DHT22;7150;53.514;9.988;2023-12-14T07:26:52;8.50;99.90
14140;DHT22;7150;53.514;9.988;2023-12-14T07:29:17;8.60;99.90
14140;DHT22;7150;53.514;9.988;2023-12-14T07:31:42;8.60;99.90
14140;DHT22;7150;53.514;9.988;2023-12-14T07:34:08;8.50;99.90
14140;DHT22;7150;53.514;9.988;2023-12-14T07:36:33;8.60;99.90
14140;DHT22;7150;53.514;9.988;2023-12-14T07:38:59;8.50;99.90
14140;DHT22;7150;53.514;9.988;2023-12-14T07:41:26;8.50;99.90
14140;DHT22;7150;53.514;9.988;2023-12-14T07:43:55;8.40;99.90
14140;DHT22;7150;53.514;9.988;2023-12-14T07:46:21;8.40;99.90
14140;DHT22;7150;53.514;9.988;2023-12-14T07:48:46;8.40;99.90
14140;DHT22;7150;53.514;9.988;2023-12-14T07:51:12;8.50;99.90
14140;DHT22;7150;53.514;9.988;2023-12-14T07:53:38;8.40;99.90
14140;DHT22;7150;53.514;9.988;2023-12-14T07:56:04;8.40;99.90
14140;DHT22;7150;53.514;9.988;2023-12-14T07:58:30;8.40;99.90
14140;DHT22;7150;53.514;9.988;2023-12-14T08:00:55;8.40;99.90
14140;DHT22;7150;53.514;9.988;2023-12-14T08:03:21;8.40;99.90
14140;DHT22;7150;53.514;9.988;2023-12-14T08:05:47;8.50;99.90
14140;DHT22;7150;53.514;9.988;2023-12-14T08:08:12;8.40;99.90
14140;DHT22;7150;53.514;9.988;2023-12-14T08:10:38;8.40;99.90
14140;DHT22;7150;53.514;9.988;2023-12-14T08:13:03;8.40;99.90
14140;DHT22;7150;53.514;9.988;2023-12-14T08:15:29;8.40;99.90
14140;DHT22;7150;53.514;9.988;2023-12-14T08:17:55;8.40;99.90
14140;DHT22;7150;53.514;9.988;2023-12-14T08:20:21;8.40;99.90
14140;DHT22;7150;53.514;9.988;2023-12-14T08:22:47;8.30;99.90
14140;DHT22;7150;53.514;9.988;2023-12-14T08:25:15;8.40;99.90
14140;DHT22;7150;53.514;9.988;2023-12-14T08:27:42;8.30;99.90
14140;DHT22;7150;53.514;9.988;2023-12-14T08:30:10;8.30;99.90
14140;DHT22;7150;53.514;9.988;2023-12-14T08:32:36;8.40;99.90
14140;DHT22;7150;53.514;9.988;2023-12-14T08:35:02;8.40;99.90
14140;DHT22;7150;53.514;9.988;2023-12-14T08:37:28;8.40;99.90
14140;DHT22;7150;53.514;9.988;2023-12-14T08:39:54;8.40;99.90
14140;DHT22;7150;53.514;9.988;2023-12-14T08:42:20;8.40;99.90
14140;DHT22;7150;53.514;9.988;2023-12-14T08:44:46;8.50;99.90
14140;DHT22;7150;53.514;9.988;2023-12-14T08:47:11;8.60;99.90
14140;DHT22;7150;53.514;9.988;2023-12-14T08:49:37;8.50;99.90
14140;DHT22;7150;53.514;9.988;2023-12-14T08:52:03;8.50;99.90
14140;DHT22;7150;53.514;9.988;2023-12-14T08:54:29;8.40;99.90
14140;DHT22;7150;53.514;9.988;2023-12-14T08:56:55;8.50;99.90
14140;DHT22;7150;53.514;9.988;2023-12-14T08:59:20;8.40;99.90
14140;DHT22;7150;53.514;9.988;2023-12-14T09:01:46;8.40;99.90
14140;DHT22;7150;53.514;9.988;2023-12-14T09:04:12;8.60;99.90
14140;DHT22;7150;53.514;9.988;2023-12-14T09:06:38;8.40;99.90
14140;DHT22;7150;53.514;9.988;2023-12-14T09:09:07;10.10;99.90
14140;DHT22;7150;53.514;9.988;2023-12-14T09:11:33;8.50;99.90
14140;DHT22;7150;53.514;9.988;2023-12-14T09:14:00;8.60;99.90
14140;DHT22;7150;53.514;9.988;2023-12-14T09:16:25;8.50;99.90
14140;DHT22;7150;53.514;9.988;2023-12-14T09:18:51;8.50;99.90
14140;DHT22;7150;53.514;9.988;2023-12-14T09:21:16;8.40;99.90
14140;DHT22;7150;53.514;9.988;2023-12-14T09:23:42;8.50;99.90
14140;DHT22;7150;53.514;9.988;2023-12-14T09:26:08;8.50;99.90
14140;DHT22;7150;53.514;9.988;2023-12-14T09:28:33;8.50;99.90
14140;DHT22;7150;53.514;9.988;2023-12-14T09:30:59;8.90;99.90
14140;DHT22;7150;53.514;9.988;2023-12-14T09:33:24;8.40;99.90
14140;DHT22;7150;53.514;9.988;2023-12-14T09:35:50;8.40;99.90
14140;DHT22;7150;53.514;9.988;2023-12-14T09:38:16;8.50;99.90
14140;DHT22;7150;53.514;9.988;2023-12-14T09:40:44;8.50;99.90
14140;DHT22;7150;53.514;9.988;2023-12-14T09:43:10;8.50;99.90
14140;DHT22;7150;53.514;9.988;2023-12-14T09:45:38;8.90;99.90
14140;DHT22;7150;53.514;9.988;2023-12-14T09:48:08;8.10;99.90
14140;DHT22;7150;53.514;9.988;2023-12-14T09:50:34;8.60;99.90
14140;DHT22;7150;53.514;9.988;2023-12-14T09:53:01;9.30;99.90
14140;DHT22;7150;53.514;9.988;2023-12-14T09:55:26;8.60;99.90
14140;DHT22;7150;53.514;9.988;2023-12-14T09:57:52;8.70;99.90
14140;DHT22;7150;53.514;9.988;2023-12-14T10:00:33;8.80;99.90
14140;DHT22;7150;53.514;9.988;2023-12-14T10:03:22;8.70;99.90
14140;DHT22;7150;53.514;9.988;2023-12-14T10:05:48;8.70;99.90
14140;DHT22;7150;53.514;9.988;2023-12-14T10:08:15;8.70;99.90
14140;DHT22;7150;53.514;9.988;2023-12-14T10:10:42;8.60;99.90
14140;DHT22;7150;53.514;9.988;2023-12-14T10:13:08;8.50;99.90
14140;DHT22;7150;53.514;9.988;2023-12-14T10:15:43;8.60;99.90
14140;DHT22;7150;53.514;9.988;2023-12-14T10:18:09;8.60;99.90
14140;DHT22;7150;53.514;9.988;2023-12-14T10:20:35;8.60;99.90
14140;DHT22;7150;53.514;9.988;2023-12-14T10:23:07;8.50;99.90
14140;DHT22;7150;53.514;9.988;2023-12-14T10:25:32;8.60;99.90
14140;DHT22;7150;53.514;9.988;2023-12-14T10:27:58;8.70;99.90
14140;DHT22;7150;53.514;9.988;2023-12-14T10:30:25;8.70;99.90
14140;DHT22;7150;53.514;9.988;2023-12-14T10:32:53;8.70;99.90
14140;DHT22;7150;53.514;9.988;2023-12-14T10:35:18;8.70;99.90
14140;DHT22;7150;53.514;9.988;2023-12-14T10:37:46;8.70;99.90
14140;DHT22;7150;53.514;9.988;2023-12-14T10:40:14;8.80;99.90
14140;DHT22;7150;53.514;9.988;2023-12-14T10:42:43;8.80;99.90
14140;DHT22;7150;53.514;9.988;2023-12-14T10:45:11;8.70;99.90
14140;DHT22;7150;53.514;9.988;2023-12-14T10:47:39;8.70;99.90
14140;DHT22;7150;53.514;9.988;2023-12-14T10:50:09;8.80;99.90
14140;DHT22;7150;53.514;9.988;2023-12-14T10:52:38;8.80;99.90
14140;DHT22;7150;53.514;9.988;2023-12-14T10:55:07;8.70;99.90
14140;DHT22;7150;53.514;9.988;2023-12-14T10:57:34;8.60;99.90
14140;DHT22;7150;53.514;9.988;2023-12-14T11:00:00;9.30;99.90
14140;DHT22;7150;53.514;9.988;2023-12-14T11:02:28;8.70;99.90
14140;DHT22;7150;53.514;9.988;2023-12-14T11:05:02;9.00;99.90
14140;DHT22;7150;53.514;9.988;2023-12-14T11:07:46;8.70;99.90
14140;DHT22;7150;53.514;9.988;2023-12-14T11:10:13;8.70;99.90
14140;DHT22;7150;53.514;9.988;2023-12-14T11:15:19;8.70;99.90
14140;DHT22;7150;53.514;9.988;2023-12-14T11:21:02;8.80;99.90
14140;DHT22;7150;53.514;9.988;2023-12-14T11:23:33;8.70;99.90
14140;DHT22;7150;53.514;9.988;2023-12-14T11:26:22;8.80;99.90
14140;DHT22;7150;53.514;9.988;2023-12-14T11:28:50;8.70;99.90
14140;DHT22;7150;53.514;9.988;2023-12-14T11:31:16;8.80;99.90
14140;DHT22;7150;53.514;9.988;2023-12-14T11:33:42;8.70;99.90
14140;DHT22;7150;53.514;9.988;2023-12-14T11:36:11;8.60;99.90
14140;DHT22;7150;53.514;9.988;2023-12-14T11:38:37;8.70;99.90
14140;DHT22;7150;53.514;9.988;2023-12-14T11:41:02;8.80;99.90
14140;DHT22;7150;53.514;9.988;2023-12-14T11:43:28;8.80;99.90
14140;DHT22;7150;53.514;9.988;2023-12-14T11:45:55;8.70;99.90
14140;DHT22;7150;53.514;9.988;2023-12-14T11:48:21;8.70;99.90
14140;DHT22;7150;53.514;9.988;2023-12-14T11:50:46;8.80;99.90
14140;DHT22;7150;53.514;9.988;2023-12-14T11:53:13;8.60;99.90
14140;DHT22;7150;53.514;9.988;2023-12-14T11:55:40;8.80;99.90
14140;DHT22;7150;53.514;9.988;2023-12-14T11:58:06;8.80;99.90
14140;DHT22;7150;53.514;9.988;2023-12-14T12:00:33;8.90;99.90
14140;DHT22;7150;53.514;9.988;2023-12-14T12:03:16;8.70;99.90
14140;DHT22;7150;53.514;9.988;2023-12-14T12:05:44;8.70;99.90
14140;DHT22;7150;53.514;9.988;2023-12-14T12:08:11;8.70;99.90
14140;DHT22;7150;53.514;9.988;2023-12-14T12:10:38;8.70;99.90
14140;DHT22;7150;53.514;9.988;2023-12-14T12:13:15;8.60;99.90
14140;DHT22;7150;53.514;9.988;2023-12-14T12:15:41;8.60;99.90
14140;DHT22;7150;53.514;9.988;2023-12-14T12:18:08;8.70;99.90
14140;DHT22;7150;53.514;9.988;2023-12-14T12:20:34;8.70;99.90
14140;DHT22;7150;53.514;9.988;2023-12-14T12:23:01;8.70;99.90
14140;DHT22;7150;53.514;9.988;2023-12-14T12:25:30;8.90;99.90
14140;DHT22;7150;53.514;9.988;2023-12-14T12:27:59;8.70;99.90
14140;DHT22;7150;53.514;9.988;2023-12-14T12:30:25;8.60;99.90
14140;DHT22;7150;53.514;9.988;2023-12-14T12:32:51;8.60;99.90
14140;DHT22;7150;53.514;9.988;2023-12-14T12:35:21;8.60;99.90
14140;DHT22;7150;53.514;9.988;2023-12-14T12:37:47;8.60;99.90
14140;DHT22;7150;53.514;9.988;2023-12-14T12:40:19;8.60;99.90
14140;DHT22;7150;53.514;9.988;2023-12-14T12:42:45;8.60;99.90
14140;DHT22;7150;53.514;9.988;2023-12-14T12:45:14;8.70;99.90
14140;DHT22;7150;53.514;9.988;2023-12-14T12:47:39;8.70;99.90
14140;DHT22;7150;53.514;9.988;2023-12-14T12:50:05;8.70;99.90
14140;DHT22;7150;53.514;9.988;2023-12-14T12:52:31;8.70;99.90
14140;DHT22;7150;53.514;9.988;2023-12-14T12:54:56;8.90;99.90
14140;DHT22;7150;53.514;9.988;2023-12-14T12:57:23;8.70;99.90
14140;DHT22;7150;53.514;9.988;2023-12-14T12:59:48;8.60;99.90
14140;DHT22;7150;53.514;9.988;2023-12-14T13:02:14;8.70;99.90
14140;DHT22;7150;53.514;9.988;2023-12-14T13:04:39;8.70;99.90
14140;DHT22;7150;53.514;9.988;2023-12-14T13:07:05;8.90;99.90
14140;DHT22;7150;53.514;9.988;2023-12-14T13:09:30;8.70;99.90
14140;DHT22;7150;53.514;9.988;2023-12-14T13:11:56;8.80;99.90
14140;DHT22;7150;53.514;9.988;2023-12-14T13:14:21;8.80;99.90
14140;DHT22;7150;53.514;9.988;2023-12-14T13:16:47;8.80;99.90
14140;DHT22;7150;53.514;9.988;2023-12-14T13:19:13;8.80;99.90
14140;DHT22;7150;53.514;9.988;2023-12-14T13:21:39;8.70;99.90
14140;DHT22;7150;53.514;9.988;2023-12-14T13:24:04;8.70;99.90
14140;DHT22;7150;53.514;9.988;2023-12-14T13:26:30;8.70;99.90
14140;DHT22;7150;53.514;9.988;2023-12-14T13:28:55;8.70;99.90
14140;DHT22;7150;53.514;9.988;2023-12-14T13:31:21;8.70;99.90
14140;DHT22;7150;53.514;9.988;2023-12-14T13:33:47;8.70;99.90
14140;DHT22;7150;53.514;9.988;2023-12-14T13:36:14;8.70;99.90
14140;DHT22;7150;53.514;9.988;2023-12-14T13:38:40;8.70;99.90
14140;DHT22;7150;53.514;9.988;2023-12-14T13:41:07;8.70;99.90
14140;DHT22;7150;53.514;9.988;2023-12-14T13:43:33;8.70;99.90
14140;DHT22;7150;53.514;9.988;2023-12-14T13:45:58;8.70;99.90
14140;DHT22;7150;53.514;9.988;2023-12-14T13:48:25;8.70;99.90
14140;DHT22;7150;53.514;9.988;2023-12-14T13:50:51;8.70;99.90
14140;DHT22;7150;53.514;9.988;2023-12-14T13:53:16;8.80;99.90
14140;DHT22;7150;53.514;9.988;2023-12-14T13:55:42;8.70;99.90
14140;DHT22;7150;53.514;9.988;2023-12-14T13:58:07;8.60;99.90
14140;DHT22;7150;53.514;9.988;2023-12-14T14:00:33;8.60;99.90
14140;DHT22;7150;53.514;9.988;2023-12-14T14:03:00;8.60;99.90
14140;DHT22;7150;53.514;9.988;2023-12-14T14:05:26;8.90;99.90
14140;DHT22;7150;53.514;9.988;2023-12-14T14:07:52;8.70;99.90
14140;DHT22;7150;53.514;9.988;2023-12-14T14:10:18;8.60;99.90
14140;DHT22;7150;53.514;9.988;2023-12-14T14:12:45;8.60;99.90
14140;DHT22;7150;53.514;9.988;2023-12-14T14:15:11;8.60;99.90
14140;DHT22;7150;53.514;9.988;2023-12-14T14:17:36;8.50;99.90
14140;DHT22;7150;53.514;9.988;2023-12-14T14:20:02;8.60;99.90
14140;DHT22;7150;53.514;9.988;2023-12-14T14:22:28;8.60;99.90
14140;DHT22;7150;53.514;9.988;2023-12-14T14:24:53;8.70;99.90
14140;DHT22;7150;53.514;9.988;2023-12-14T14:27:19;8.60;99.90
14140;DHT22;7150;53.514;9.988;2023-12-14T14:29:44;8.70;99.90
14140;DHT22;7150;53.514;9.988;2023-12-14T14:32:10;8.70;99.90
14140;DHT22;7150;53.514;9.988;2023-12-14T14:34:35;8.70;99.90
14140;DHT22;7150;53.514;9.988;2023-12-14T14:37:01;8.70;99.90
14140;DHT22;7150;53.514;9.988;2023-12-14T14:39:26;8.60;99.90
14140;DHT22;7150;53.514;9.988;2023-12-14T14:41:52;8.60;99.90
14140;DHT22;7150;53.514;9.988;2023-12-14T14:44:18;8.70;99.90
14140;DHT22;7150;53.514;9.988;2023-12-14T14:46:43;8.70;99.90
14140;DHT22;7150;53.514;9.988;2023-12-14T14:49:09;8.70;99.90
14140;DHT22;7150;53.514;9.988;2023-12-14T14:51:35;8.40;99.90
14140;DHT22;7150;53.514;9.988;2023-12-14T14:54:00;8.80;99.90
14140;DHT22;7150;53.514;9.988;2023-12-14T14:56:26;8.80;99.90
14140;DHT22;7150;53.514;9.988;2023-12-14T14:58:51;8.90;99.90
14140;DHT22;7150;53.514;9.988;2023-12-14T15:01:17;8.80;99.90
14140;DHT22;7150;53.514;9.988;2023-12-14T15:03:43;8.80;99.90
14140;DHT22;7150;53.514;9.988;2023-12-14T15:06:08;8.40;99.90
14140;DHT22;7150;53.514;9.988;2023-12-14T15:08:34;8.80;99.90
14140;DHT22;7150;53.514;9.988;2023-12-14T15:10:59;8.60;99.90
14140;DHT22;7150;53.514;9.988;2023-12-14T15:13:25;8.60;99.90
14140;DHT22;7150;53.514;9.988;2023-12-14T15:15:50;8.80;99.90
14140;DHT22;7150;53.514;9.988;2023-12-14T15:18:16;8.70;99.90
14140;DHT22;7150;53.514;9.988;2023-12-14T15:20:41;8.70;99.90
14140;DHT22;7150;53.514;9.988;2023-12-14T15:23:07;8.70;99.90
14140;DHT22;7150;53.514;9.988;2023-12-14T15:25:34;8.80;99.90
14140;DHT22;7150;53.514;9.988;2023-12-14T15:27:59;8.70;99.90
14140;DHT22;7150;53.514;9.988;2023-12-14T15:30:25;8.70;99.90
14140;DHT22;7150;53.514;9.988;2023-12-14T15:32:50;8.80;99.90
14140;DHT22;7150;53.514;9.988;2023-12-14T15:35:16;8.70;99.90
14140;DHT22;7150;53.514;9.988;2023-12-14T15:37:42;8.70;99.90
14140;DHT22;7150;53.514;9.988;2023-12-14T15:40:08;8.80;99.90
14140;DHT22;7150;53.514;9.988;2023-12-14T15:42:34;8.70;99.90
14140;DHT22;7150;53.514;9.988;2023-12-14T15:45:00;8.70;99.90
14140;DHT22;7150;53.514;9.988;2023-12-14T15:47:25;8.80;99.90
14140;DHT22;7150;53.514;9.988;2023-12-14T15:49:51;8.70;99.90
14140;DHT22;7150;53.514;9.988;2023-12-14T15:52:16;8.80;99.90
14140;DHT22;7150;53.514;9.988;2023-12-14T15:54:42;8.70;99.90
14140;DHT22;7150;53.514;9.988;2023-12-14T15:57:08;8.60;99.90
14140;DHT22;7150;53.514;9.988;2023-12-14T15:59:34;8.50;99.90
14140;DHT22;7150;53.514;9.988;2023-12-14T16:01:59;8.50;99.90
14140;DHT22;7150;53.514;9.988;2023-12-14T16:04:25;8.60;99.90